sensor_id;sensor_type;location;lat;lon;timestamp;temperature;humidity
18339;DHT22;9295;44.484;11.240;2023-03-01T00:01:47;5.90;99.90
18339;DHT22;9295;44.484;11.240;2023-03-01T00:04:16;5.90;99.90
18339;DHT22;9295;44.484;11.240;2023-03-01T00:06:46;5.90;99.90
18339;DHT22;9295;44.484;11.240;2023-03-01T00:09:15;5.90;99.90
18339;DHT22;9295;44.484;11.240;2023-03-01T00:11:43;5.80;99.90
18339;DHT22;9295;44.484;11.240;2023-03-01T00:14:12;5.80;99.90
18339;DHT22;9295;44.484;11.240;2023-03-01T00:16:44;5.80;99.90
18339;DHT22;9295;44.484;11.240;2023-03-01T00:19:14;5.80;99.90
18339;DHT22;9295;44.484;11.240;2023-03-01T00:21:43;5.80;99.90
18339;DHT22;9295;44.484;11.240;2023-03-01T00:24:13;5.80;99.90
18339;DHT22;9295;44.484;11.240;2023-03-01T00:26:42;5.80;99.90
18339;DHT22;9295;44.484;11.240;2023-03-01T00:29:11;5.80;99.90
18339;DHT22;9295;44.484;11.240;2023-03-01T00:31:39;5.80;99.90
18339;DHT22;9295;44.484;11.240;2023-03-01T00:34:09;5.80;99.90
18339;DHT22;9295;44.484;11.240;2023-03-01T00:36:38;5.80;99.90
18339;DHT22;9295;44.484;11.240;2023-03-01T00:39:10;5.80;99.90
18339;DHT22;9295;44.484;11.240;2023-03-01T00:41:41;5.80;99.90
18339;DHT22;9295;44.484;11.240;2023-03-01T00:44:10;5.80;99.90
18339;DHT22;9295;44.484;11.240;2023-03-01T00:46:38;5.70;99.90
18339;DHT22;9295;44.484;11.240;2023-03-01T00:49:07;5.70;99.90
18339;DHT22;9295;44.484;11.240;2023-03-01T00:51:36;5.70;99.90
18339;DHT22;9295;44.484;11.240;2023-03-01T00:54:07;5.70;99.90
18339;DHT22;9295;44.484;11.240;2023-03-01T00:56:36;5.70;99.90
18339;DHT22;9295;44.484;11.240;2023-03-01T00:59:05;5.60;99.90
18339;DHT22;9295;44.484;11.240;2023-03-01T01:01:34;5.60;99.90
18339;DHT22;9295;44.484;11.240;2023-03-01T01:04:05;5.60;99.90
18339;DHT22;9295;44.484;11.240;2023-03-01T01:06:35;5.60;99.90
18339;DHT22;9295;44.484;11.240;2023-03-01T01:09:05;5.60;99.90
18339;DHT22;9295;44.484;11.240;2023-03-01T01:11:35;5.60;99.90
18339;DHT22;9295;44.484;11.240;2023-03-01T01:14:05;5.60;99.90
18339;DHT22;9295;44.484;11.240;2023-03-01T01:16:34;5.60;99.90
18339;DHT22;9295;44.484;11.240;2023-03-01T01:19:03;5.60;99.90
18339;DHT22;9295;44.484;11.240;2023-03-01T01:21:32;5.50;99.90
18339;DHT22;9295;44.484;11.240;2023-03-01T01:24:03;5.50;99.90
18339;DHT22;9295;44.484;11.240;2023-03-01T01:26:33;5.50;99.90
18339;DHT22;9295;44.484;11.240;2023-03-01T01:29:05;5.50;99.90
18339;DHT22;9295;44.484;11.240;2023-03-01T01:31:35;5.50;99.90
18339;DHT22;9295;44.484;11.240;2023-03-01T01:34:06;5.50;99.90
18339;DHT22;9295;44.484;11.240;2023-03-01T01:36:35;5.50;99.90
18339;DHT22;9295;44.484;11.240;2023-03-01T01:39:04;5.50;99.90
18339;DHT22;9295;44.484;11.240;2023-03-01T01:41:32;5.50;99.90
18339;DHT22;9295;44.484;11.240;2023-03-01T01:44:15;5.40;99.90
18339;DHT22;9295;44.484;11.240;2023-03-01T01:46:47;5.50;99.90
18339;DHT22;9295;44.484;11.240;2023-03-01T01:49:29;5.40;99.90
18339;DHT22;9295;44.484;11.240;2023-03-01T01:52:07;5.40;99.90
18339;DHT22;9295;44.484;11.240;2023-03-01T01:54:43;5.40;99.90
18339;DHT22;9295;44.484;11.240;2023-03-01T01:57:16;5.40;99.90
18339;DHT22;9295;44.484;11.240;2023-03-01T01:59:50;5.40;99.90
18339;DHT22;9295;44.484;11.240;2023-03-01T02:02:19;5.40;99.90
18339;DHT22;9295;44.484;11.240;2023-03-01T02:04:49;5.40;99.90
18339;DHT22;9295;44.484;11.240;2023-03-01T02:07:22;5.40;99.90
18339;DHT22;9295;44.484;11.240;2023-03-01T02:09:52;5.40;99.90
18339;DHT22;9295;44.484;11.240;2023-03-01T02:12:23;5.30;99.90
18339;DHT22;9295;44.484;11.240;2023-03-01T02:14:54;5.40;99.90
18339;DHT22;9295;44.484;11.240;2023-03-01T02:17:22;5.40;99.90
18339;DHT22;9295;44.484;11.240;2023-03-01T02:20:01;5.40;99.90
18339;DHT22;9295;44.484;11.240;2023-03-01T02:22:36;5.40;99.90
18339;DHT22;9295;44.484;11.240;2023-03-01T02:27:53;5.40;99.90
18339;DHT22;9295;44.484;11.240;2023-03-01T02:30:27;5.40;99.90
18339;DHT22;9295;44.484;11.240;2023-03-01T02:32:57;5.40;99.90
18339;DHT22;9295;44.484;11.240;2023-03-01T02:35:32;5.30;99.90
18339;DHT22;9295;44.484;11.240;2023-03-01T02:38:02;5.30;99.90
18339;DHT22;9295;44.484;11.240;2023-03-01T02:40:33;5.30;99.90
18339;DHT22;9295;44.484;11.240;2023-03-01T02:43:04;5.40;99.90
18339;DHT22;9295;44.484;11.240;2023-03-01T02:45:37;5.40;99.90
18339;DHT22;9295;44.484;11.240;2023-03-01T02:48:06;5.40;99.90
18339;DHT22;9295;44.484;11.240;2023-03-01T02:50:49;5.40;99.90
18339;DHT22;9295;44.484;11.240;2023-03-01T02:53:23;5.40;99.90
18339;DHT22;9295;44.484;11.240;2023-03-01T02:55:54;5.40;99.90
18339;DHT22;9295;44.484;11.240;2023-03-01T02:58:23;5.40;99.90
18339;DHT22;9295;44.484;11.240;2023-03-01T03:00:54;5.40;99.90
18339;DHT22;9295;44.484;11.240;2023-03-01T03:03:22;5.40;99.90
18339;DHT22;9295;44.484;11.240;2023-03-01T03:05:51;5.30;99.90
18339;DHT22;9295;44.484;11.240;2023-03-01T03:08:20;5.40;99.90
18339;DHT22;9295;44.484;11.240;2023-03-01T03:10:52;5.40;99.90
18339;DHT22;9295;44.484;11.240;2023-03-01T03:13:21;5.30;99.90
18339;DHT22;9295;44.484;11.240;2023-03-01T03:15:57;5.30;99.90
18339;DHT22;9295;44.484;11.240;2023-03-01T03:18:26;5.30;99.90
18339;DHT22;9295;44.484;11.240;2023-03-01T03:20:54;5.30;99.90
18339;DHT22;9295;44.484;11.240;2023-03-01T03:23:23;5.30;99.90
18339;DHT22;9295;44.484;11.240;2023-03-01T03:25:52;5.30;99.90
18339;DHT22;9295;44.484;11.240;2023-03-01T03:28:20;5.30;99.90
18339;DHT22;9295;44.484;11.240;2023-03-01T03:30:49;5.20;99.90
18339;DHT22;9295;44.484;11.240;2023-03-01T03:33:19;5.20;99.90
18339;DHT22;9295;44.484;11.240;2023-03-01T03:35:49;5.20;99.90
18339;DHT22;9295;44.484;11.240;2023-03-01T03:38:19;5.10;99.90
18339;DHT22;9295;44.484;11.240;2023-03-01T03:40:51;5.10;99.90
18339;DHT22;9295;44.484;11.240;2023-03-01T03:43:20;5.10;99.90
18339;DHT22;9295;44.484;11.240;2023-03-01T03:45:50;5.10;99.90
18339;DHT22;9295;44.484;11.240;2023-03-01T03:48:21;5.10;99.90
18339;DHT22;9295;44.484;11.240;2023-03-01T03:50:50;5.00;99.90
18339;DHT22;9295;44.484;11.240;2023-03-01T03:53:20;5.00;99.90
18339;DHT22;9295;44.484;11.240;2023-03-01T03:55:48;5.00;99.90
18339;DHT22;9295;44.484;11.240;2023-03-01T03:58:19;4.90;99.90
18339;DHT22;9295;44.484;11.240;2023-03-01T04:00:50;4.90;99.90
18339;DHT22;9295;44.484;11.240;2023-03-01T04:03:20;4.90;99.90
18339;DHT22;9295;44.484;11.240;2023-03-01T04:05:51;4.80;99.90
18339;DHT22;9295;44.484;11.240;2023-03-01T04:08:21;4.80;99.90
18339;DHT22;9295;44.484;11.240;2023-03-01T04:10:51;4.80;99.90
18339;DHT22;9295;44.484;11.240;2023-03-01T04:13:21;4.80;99.90
18339;DHT22;9295;44.484;11.240;2023-03-01T04:15:53;4.80;99.90
18339;DHT22;9295;44.484;11.240;2023-03-01T04:18:24;4.70;99.90
18339;DHT22;9295;44.484;11.240;2023-03-01T04:23:40;4.70;99.90
18339;DHT22;9295;44.484;11.240;2023-03-01T04:26:09;4.70;99.90
18339;DHT22;9295;44.484;11.240;2023-03-01T04:28:39;4.60;99.90
18339;DHT22;9295;44.484;11.240;2023-03-01T04:31:11;4.60;99.90
18339;DHT22;9295;44.484;11.240;2023-03-01T04:33:47;4.60;99.90
18339;DHT22;9295;44.484;11.240;2023-03-01T04:36:17;4.60;99.90
18339;DHT22;9295;44.484;11.240;2023-03-01T04:38:46;4.60;99.90
18339;DHT22;9295;44.484;11.240;2023-03-01T04:41:17;4.50;99.90
18339;DHT22;9295;44.484;11.240;2023-03-01T04:43:45;4.50;99.90
18339;DHT22;9295;44.484;11.240;2023-03-01T04:46:17;4.50;99.90
18339;DHT22;9295;44.484;11.240;2023-03-01T04:48:47;4.50;99.90
18339;DHT22;9295;44.484;11.240;2023-03-01T04:51:16;4.50;99.90
18339;DHT22;9295;44.484;11.240;2023-03-01T04:53:45;4.50;99.90
18339;DHT22;9295;44.484;11.240;2023-03-01T04:56:15;4.50;99.90
18339;DHT22;9295;44.484;11.240;2023-03-01T04:58:45;4.50;99.90
18339;DHT22;9295;44.484;11.240;2023-03-01T05:01:17;4.40;99.90
18339;DHT22;9295;44.484;11.240;2023-03-01T05:03:50;4.40;99.90
18339;DHT22;9295;44.484;11.240;2023-03-01T05:06:20;4.50;99.90
18339;DHT22;9295;44.484;11.240;2023-03-01T05:08:49;4.40;99.90
18339;DHT22;9295;44.484;11.240;2023-03-01T05:11:17;4.40;99.90
18339;DHT22;9295;44.484;11.240;2023-03-01T05:13:46;4.40;99.90
18339;DHT22;9295;44.484;11.240;2023-03-01T05:16:14;4.30;99.90
18339;DHT22;9295;44.484;11.240;2023-03-01T05:18:44;4.30;99.90
18339;DHT22;9295;44.484;11.240;2023-03-01T05:21:14;4.30;99.90
18339;DHT22;9295;44.484;11.240;2023-03-01T05:23:44;4.20;99.90
18339;DHT22;9295;44.484;11.240;2023-03-01T05:26:15;4.20;99.90
18339;DHT22;9295;44.484;11.240;2023-03-01T05:28:59;4.20;99.90
18339;DHT22;9295;44.484;11.240;2023-03-01T05:31:28;4.20;99.90
18339;DHT22;9295;44.484;11.240;2023-03-01T05:33:58;4.20;99.90
18339;DHT22;9295;44.484;11.240;2023-03-01T05:36:28;4.20;99.90
18339;DHT22;9295;44.484;11.240;2023-03-01T05:38:56;4.20;99.90
18339;DHT22;9295;44.484;11.240;2023-03-01T05:41:25;4.20;99.90
18339;DHT22;9295;44.484;11.240;2023-03-01T05:43:53;4.20;99.90
18339;DHT22;9295;44.484;11.240;2023-03-01T05:46:22;4.10;99.90
18339;DHT22;9295;44.484;11.240;2023-03-01T05:48:51;4.10;99.90
18339;DHT22;9295;44.484;11.240;2023-03-01T05:51:20;4.10;99.90
18339;DHT22;9295;44.484;11.240;2023-03-01T05:53:50;4.10;99.90
18339;DHT22;9295;44.484;11.240;2023-03-01T05:56:19;4.10;99.90
18339;DHT22;9295;44.484;11.240;2023-03-01T05:58:49;4.10;99.90
18339;DHT22;9295;44.484;11.240;2023-03-01T06:01:17;4.10;99.90
18339;DHT22;9295;44.484;11.240;2023-03-01T06:03:46;4.10;99.90
18339;DHT22;9295;44.484;11.240;2023-03-01T06:06:15;4.00;99.90
18339;DHT22;9295;44.484;11.240;2023-03-01T06:08:44;4.00;99.90
18339;DHT22;9295;44.484;11.240;2023-03-01T06:11:13;4.00;99.90
18339;DHT22;9295;44.484;11.240;2023-03-01T06:13:42;4.00;99.90
18339;DHT22;9295;44.484;11.240;2023-03-01T06:16:11;4.10;99.90
18339;DHT22;9295;44.484;11.240;2023-03-01T06:18:40;4.10;99.90
18339;DHT22;9295;44.484;11.240;2023-03-01T06:21:09;4.10;99.90
18339;DHT22;9295;44.484;11.240;2023-03-01T06:23:37;4.10;99.90
18339;DHT22;9295;44.484;11.240;2023-03-01T06:26:07;4.20;99.90
18339;DHT22;9295;44.484;11.240;2023-03-01T06:28:37;4.20;99.90
18339;DHT22;9295;44.484;11.240;2023-03-01T06:31:06;4.20;99.90
18339;DHT22;9295;44.484;11.240;2023-03-01T06:33:36;4.20;99.90
18339;DHT22;9295;44.484;11.240;2023-03-01T06:36:05;4.20;99.90
18339;DHT22;9295;44.484;11.240;2023-03-01T06:38:33;4.10;99.90
18339;DHT22;9295;44.484;11.240;2023-03-01T06:41:02;4.20;99.90
18339;DHT22;9295;44.484;11.240;2023-03-01T06:43:30;4.20;99.90
18339;DHT22;9295;44.484;11.240;2023-03-01T06:46:03;4.20;99.90
18339;DHT22;9295;44.484;11.240;2023-03-01T06:48:32;4.20;99.90
18339;DHT22;9295;44.484;11.240;2023-03-01T06:51:01;4.20;99.90
18339;DHT22;9295;44.484;11.240;2023-03-01T06:53:30;4.20;99.90
18339;DHT22;9295;44.484;11.240;2023-03-01T06:55:58;4.20;99.90
18339;DHT22;9295;44.484;11.240;2023-03-01T06:58:27;4.20;99.90
18339;DHT22;9295;44.484;11.240;2023-03-01T07:00:55;4.20;99.90
18339;DHT22;9295;44.484;11.240;2023-03-01T07:03:25;4.30;99.90
18339;DHT22;9295;44.484;11.240;2023-03-01T07:05:54;4.30;99.90
18339;DHT22;9295;44.484;11.240;2023-03-01T07:08:22;4.30;99.90
18339;DHT22;9295;44.484;11.240;2023-03-01T07:10:55;4.20;99.90
18339;DHT22;9295;44.484;11.240;2023-03-01T07:13:24;4.20;99.90
18339;DHT22;9295;44.484;11.240;2023-03-01T07:15:53;4.20;99.90
18339;DHT22;9295;44.484;11.240;2023-03-01T07:18:22;4.20;99.90
18339;DHT22;9295;44.484;11.240;2023-03-01T07:20:51;4.20;99.90
18339;DHT22;9295;44.484;11.240;2023-03-01T07:23:20;4.30;99.90
18339;DHT22;9295;44.484;11.240;2023-03-01T07:25:52;4.30;99.90
18339;DHT22;9295;44.484;11.240;2023-03-01T07:28:22;4.30;99.90
18339;DHT22;9295;44.484;11.240;2023-03-01T07:30:51;4.30;99.90
18339;DHT22;9295;44.484;11.240;2023-03-01T07:33:20;4.30;99.90
18339;DHT22;9295;44.484;11.240;2023-03-01T07:35:57;4.30;99.90
18339;DHT22;9295;44.484;11.240;2023-03-01T07:38:26;4.30;99.90
18339;DHT22;9295;44.484;11.240;2023-03-01T07:40:58;4.20;99.90
18339;DHT22;9295;44.484;11.240;2023-03-01T07:43:27;4.20;99.90
18339;DHT22;9295;44.484;11.240;2023-03-01T07:45:58;4.20;99.90
18339;DHT22;9295;44.484;11.240;2023-03-01T07:48:27;4.20;99.90
18339;DHT22;9295;44.484;11.240;2023-03-01T07:50:59;4.20;99.90
18339;DHT22;9295;44.484;11.240;2023-03-01T07:53:28;4.20;99.90
18339;DHT22;9295;44.484;11.240;2023-03-01T07:56:02;4.20;99.90
18339;DHT22;9295;44.484;11.240;2023-03-01T07:58:31;4.30;99.90
18339;DHT22;9295;44.484;11.240;2023-03-01T08:01:01;4.30;99.90
18339;DHT22;9295;44.484;11.240;2023-03-01T08:03:30;4.30;99.90
18339;DHT22;9295;44.484;11.240;2023-03-01T08:06:01;4.30;99.90
18339;DHT22;9295;44.484;11.240;2023-03-01T08:08:30;4.20;99.90
18339;DHT22;9295;44.484;11.240;2023-03-01T08:11:00;4.20;99.90
18339;DHT22;9295;44.484;11.240;2023-03-01T08:13:29;4.30;99.90
18339;DHT22;9295;44.484;11.240;2023-03-01T08:16:01;4.30;99.90
18339;DHT22;9295;44.484;11.240;2023-03-01T08:18:30;4.30;99.90
18339;DHT22;9295;44.484;11.240;2023-03-01T08:21:03;4.30;99.90
18339;DHT22;9295;44.484;11.240;2023-03-01T08:23:32;4.30;99.90
18339;DHT22;9295;44.484;11.240;2023-03-01T08:26:05;4.20;99.90
18339;DHT22;9295;44.484;11.240;2023-03-01T08:28:34;4.20;99.90
18339;DHT22;9295;44.484;11.240;2023-03-01T08:31:12;4.20;99.90
18339;DHT22;9295;44.484;11.240;2023-03-01T08:33:41;4.10;99.90
18339;DHT22;9295;44.484;11.240;2023-03-01T08:36:11;4.10;99.90
18339;DHT22;9295;44.484;11.240;2023-03-01T08:38:39;4.10;99.90
18339;DHT22;9295;44.484;11.240;2023-03-01T08:41:08;4.10;99.90
18339;DHT22;9295;44.484;11.240;2023-03-01T08:43:36;4.10;99.90
18339;DHT22;9295;44.484;11.240;2023-03-01T08:46:05;4.10;99.90
18339;DHT22;9295;44.484;11.240;2023-03-01T08:48:33;4.10;99.90
18339;DHT22;9295;44.484;11.240;2023-03-01T08:51:11;4.10;99.90
18339;DHT22;9295;44.484;11.240;2023-03-01T08:53:40;4.10;99.90
18339;DHT22;9295;44.484;11.240;2023-03-01T08:56:09;4.10;99.90
18339;DHT22;9295;44.484;11.240;2023-03-01T08:58:38;4.10;99.90
18339;DHT22;9295;44.484;11.240;2023-03-01T09:01:08;4.10;99.90
18339;DHT22;9295;44.484;11.240;2023-03-01T09:03:36;4.10;99.90
18339;DHT22;9295;44.484;11.240;2023-03-01T09:06:06;4.10;99.90
18339;DHT22;9295;44.484;11.240;2023-03-01T09:08:37;4.10;99.90
18339;DHT22;9295;44.484;11.240;2023-03-01T09:11:08;4.10;99.90
18339;DHT22;9295;44.484;11.240;2023-03-01T09:13:38;4.20;99.90
18339;DHT22;9295;44.484;11.240;2023-03-01T09:16:11;4.20;99.90
18339;DHT22;9295;44.484;11.240;2023-03-01T09:18:40;4.20;99.90
18339;DHT22;9295;44.484;11.240;2023-03-01T09:21:11;4.20;99.90
18339;DHT22;9295;44.484;11.240;2023-03-01T09:23:42;4.20;99.90
18339;DHT22;9295;44.484;11.240;2023-03-01T09:26:13;4.20;99.90
18339;DHT22;9295;44.484;11.240;2023-03-01T09:28:43;4.20;99.90
18339;DHT22;9295;44.484;11.240;2023-03-01T09:31:12;4.20;99.90
18339;DHT22;9295;44.484;11.240;2023-03-01T09:33:42;4.20;99.90
18339;DHT22;9295;44.484;11.240;2023-03-01T09:36:14;4.20;99.90
18339;DHT22;9295;44.484;11.240;2023-03-01T09:38:45;4.20;99.90
18339;DHT22;9295;44.484;11.240;2023-03-01T09:41:28;4.30;99.90
18339;DHT22;9295;44.484;11.240;2023-03-01T09:44:04;4.30;99.90
18339;DHT22;9295;44.484;11.240;2023-03-01T09:46:42;4.40;99.90
18339;DHT22;9295;44.484;11.240;2023-03-01T09:49:14;4.40;99.90
18339;DHT22;9295;44.484;11.240;2023-03-01T09:51:55;4.40;99.90
18339;DHT22;9295;44.484;11.240;2023-03-01T09:54:25;4.50;99.90
18339;DHT22;9295;44.484;11.240;2023-03-01T09:57:03;4.50;99.90
18339;DHT22;9295;44.484;11.240;2023-03-01T09:59:42;4.50;99.90
18339;DHT22;9295;44.484;11.240;2023-03-01T10:02:23;4.60;99.90
18339;DHT22;9295;44.484;11.240;2023-03-01T10:04:58;4.60;99.90
18339;DHT22;9295;44.484;11.240;2023-03-01T10:07:38;4.60;99.90
18339;DHT22;9295;44.484;11.240;2023-03-01T10:10:21;4.60;99.90
18339;DHT22;9295;44.484;11.240;2023-03-01T10:12:52;4.60;99.90
18339;DHT22;9295;44.484;11.240;2023-03-01T10:15:28;4.50;99.90
18339;DHT22;9295;44.484;11.240;2023-03-01T10:18:02;4.60;99.90
18339;DHT22;9295;44.484;11.240;2023-03-01T10:20:42;4.50;99.90
18339;DHT22;9295;44.484;11.240;2023-03-01T10:23:12;4.50;99.90
18339;DHT22;9295;44.484;11.240;2023-03-01T10:25:52;4.40;99.90
18339;DHT22;9295;44.484;11.240;2023-03-01T10:28:28;4.40;99.90
18339;DHT22;9295;44.484;11.240;2023-03-01T10:30:59;4.40;99.90
18339;DHT22;9295;44.484;11.240;2023-03-01T10:33:31;4.40;99.90
18339;DHT22;9295;44.484;11.240;2023-03-01T10:36:00;4.40;99.90
18339;DHT22;9295;44.484;11.240;2023-03-01T10:38:33;4.30;99.90
18339;DHT22;9295;44.484;11.240;2023-03-01T10:41:16;4.30;99.90
18339;DHT22;9295;44.484;11.240;2023-03-01T10:43:46;4.40;99.90
18339;DHT22;9295;44.484;11.240;2023-03-01T10:46:23;4.30;99.90
18339;DHT22;9295;44.484;11.240;2023-03-01T10:49:13;4.30;99.90
18339;DHT22;9295;44.484;11.240;2023-03-01T10:51:44;4.30;99.90
18339;DHT22;9295;44.484;11.240;2023-03-01T10:54:18;4.30;99.90
18339;DHT22;9295;44.484;11.240;2023-03-01T10:56:50;4.40;99.90
18339;DHT22;9295;44.484;11.240;2023-03-01T10:59:26;4.40;99.90
18339;DHT22;9295;44.484;11.240;2023-03-01T11:02:12;4.40;99.90
18339;DHT22;9295;44.484;11.240;2023-03-01T11:05:02;4.30;99.90
18339;DHT22;9295;44.484;11.240;2023-03-01T11:07:47;4.30;99.90
18339;DHT22;9295;44.484;11.240;2023-03-01T11:10:18;4.30;99.90
18339;DHT22;9295;44.484;11.240;2023-03-01T11:12:49;4.30;99.90
18339;DHT22;9295;44.484;11.240;2023-03-01T11:15:25;4.30;99.90
18339;DHT22;9295;44.484;11.240;2023-03-01T11:17:54;4.20;99.90
18339;DHT22;9295;44.484;11.240;2023-03-01T11:20:39;4.20;99.90
18339;DHT22;9295;44.484;11.240;2023-03-01T11:23:10;4.10;99.90
18339;DHT22;9295;44.484;11.240;2023-03-01T11:25:43;4.10;99.90
18339;DHT22;9295;44.484;11.240;2023-03-01T11:28:17;4.00;99.90
18339;DHT22;9295;44.484;11.240;2023-03-01T11:30:50;4.00;99.90
18339;DHT22;9295;44.484;11.240;2023-03-01T11:33:39;3.90;99.90
18339;DHT22;9295;44.484;11.240;2023-03-01T11:36:27;3.80;99.90
18339;DHT22;9295;44.484;11.240;2023-03-01T11:38:57;3.70;99.90
18339;DHT22;9295;44.484;11.240;2023-03-01T11:41:31;3.70;99.90
18339;DHT22;9295;44.484;11.240;2023-03-01T11:44:09;3.70;99.90
18339;DHT22;9295;44.484;11.240;2023-03-01T11:46:50;3.70;99.90
18339;DHT22;9295;44.484;11.240;2023-03-01T11:49:49;3.70;99.90
18339;DHT22;9295;44.484;11.240;2023-03-01T11:52:30;3.70;99.90
18339;DHT22;9295;44.484;11.240;2023-03-01T11:55:17;3.60;99.90
18339;DHT22;9295;44.484;11.240;2023-03-01T11:58:03;3.70;99.90
18339;DHT22;9295;44.484;11.240;2023-03-01T12:00:49;3.70;99.90
18339;DHT22;9295;44.484;11.240;2023-03-01T12:03:30;3.60;99.90
18339;DHT22;9295;44.484;11.240;2023-03-01T12:06:31;3.70;99.90
18339;DHT22;9295;44.484;11.240;2023-03-01T12:09:12;3.70;99.90
18339;DHT22;9295;44.484;11.240;2023-03-01T12:11:56;3.80;99.90
18339;DHT22;9295;44.484;11.240;2023-03-01T12:14:47;3.80;99.90
18339;DHT22;9295;44.484;11.240;2023-03-01T12:17:30;3.80;99.90
18339;DHT22;9295;44.484;11.240;2023-03-01T12:20:17;3.90;99.90
18339;DHT22;9295;44.484;11.240;2023-03-01T12:23:03;3.90;99.90
18339;DHT22;9295;44.484;11.240;2023-03-01T12:25:51;4.00;99.90
18339;DHT22;9295;44.484;11.240;2023-03-01T12:28:32;3.90;99.90
18339;DHT22;9295;44.484;11.240;2023-03-01T12:34:15;3.80;99.90
18339;DHT22;9295;44.484;11.240;2023-03-01T12:37:11;3.70;99.90
18339;DHT22;9295;44.484;11.240;2023-03-01T12:39:51;3.70;99.90
18339;DHT22;9295;44.484;11.240;2023-03-01T12:42:29;3.60;99.90
18339;DHT22;9295;44.484;11.240;2023-03-01T12:45:19;3.60;99.90
18339;DHT22;9295;44.484;11.240;2023-03-01T12:48:01;3.60;99.90
18339;DHT22;9295;44.484;11.240;2023-03-01T12:50:38;3.60;99.90
18339;DHT22;9295;44.484;11.240;2023-03-01T12:53:22;3.50;99.90
18339;DHT22;9295;44.484;11.240;2023-03-01T12:55:54;3.50;99.90
18339;DHT22;9295;44.484;11.240;2023-03-01T12:58:28;3.50;99.90
18339;DHT22;9295;44.484;11.240;2023-03-01T13:01:21;3.50;99.90
18339;DHT22;9295;44.484;11.240;2023-03-01T13:04:15;3.40;99.90
18339;DHT22;9295;44.484;11.240;2023-03-01T13:06:55;3.40;99.90
18339;DHT22;9295;44.484;11.240;2023-03-01T13:09:31;3.50;99.90
18339;DHT22;9295;44.484;11.240;2023-03-01T13:12:03;3.40;99.90
18339;DHT22;9295;44.484;11.240;2023-03-01T13:14:46;3.40;99.90
18339;DHT22;9295;44.484;11.240;2023-03-01T13:17:41;3.40;99.90
18339;DHT22;9295;44.484;11.240;2023-03-01T13:20:14;3.50;99.90
18339;DHT22;9295;44.484;11.240;2023-03-01T13:22:45;3.50;99.90
18339;DHT22;9295;44.484;11.240;2023-03-01T13:25:21;3.50;99.90
18339;DHT22;9295;44.484;11.240;2023-03-01T13:28:36;3.50;99.90
18339;DHT22;9295;44.484;11.240;2023-03-01T13:31:06;3.60;99.90
18339;DHT22;9295;44.484;11.240;2023-03-01T13:33:43;3.50;99.90
18339;DHT22;9295;44.484;11.240;2023-03-01T13:39:30;3.50;99.90
18339;DHT22;9295;44.484;11.240;2023-03-01T13:42:02;3.50;99.90
18339;DHT22;9295;44.484;11.240;2023-03-01T13:44:33;3.50;99.90
18339;DHT22;9295;44.484;11.240;2023-03-01T13:47:14;3.50;99.90
18339;DHT22;9295;44.484;11.240;2023-03-01T13:49:47;3.60;99.90
18339;DHT22;9295;44.484;11.240;2023-03-01T13:52:36;3.70;99.90
18339;DHT22;9295;44.484;11.240;2023-03-01T13:55:17;3.80;99.90
18339;DHT22;9295;44.484;11.240;2023-03-01T13:57:48;3.80;99.90
18339;DHT22;9295;44.484;11.240;2023-03-01T14:00:35;3.80;99.90
18339;DHT22;9295;44.484;11.240;2023-03-01T14:03:12;3.80;99.90
18339;DHT22;9295;44.484;11.240;2023-03-01T14:05:42;3.80;99.90
18339;DHT22;9295;44.484;11.240;2023-03-01T14:08:21;3.90;99.90
18339;DHT22;9295;44.484;11.240;2023-03-01T14:11:00;3.90;99.90
18339;DHT22;9295;44.484;11.240;2023-03-01T14:13:45;3.90;99.90
18339;DHT22;9295;44.484;11.240;2023-03-01T14:16:28;3.80;99.90
18339;DHT22;9295;44.484;11.240;2023-03-01T14:19:10;3.80;99.90
18339;DHT22;9295;44.484;11.240;2023-03-01T14:21:59;3.80;99.90
18339;DHT22;9295;44.484;11.240;2023-03-01T14:24:34;3.80;99.90
18339;DHT22;9295;44.484;11.240;2023-03-01T14:27:11;3.80;99.90
18339;DHT22;9295;44.484;11.240;2023-03-01T14:29:40;3.80;99.90
18339;DHT22;9295;44.484;11.240;2023-03-01T14:32:11;3.70;99.90
18339;DHT22;9295;44.484;11.240;2023-03-01T14:34:43;3.70;99.90
18339;DHT22;9295;44.484;11.240;2023-03-01T14:37:20;3.70;99.90
18339;DHT22;9295;44.484;11.240;2023-03-01T14:39:49;3.70;99.90
18339;DHT22;9295;44.484;11.240;2023-03-01T14:42:20;3.60;99.90
18339;DHT22;9295;44.484;11.240;2023-03-01T14:44:51;3.60;99.90
18339;DHT22;9295;44.484;11.240;2023-03-01T14:47:25;3.60;99.90
18339;DHT22;9295;44.484;11.240;2023-03-01T14:49:58;3.60;99.90
18339;DHT22;9295;44.484;11.240;2023-03-01T14:52:33;3.60;99.90
18339;DHT22;9295;44.484;11.240;2023-03-01T14:55:05;3.60;99.90
18339;DHT22;9295;44.484;11.240;2023-03-01T14:57:37;3.60;99.90
18339;DHT22;9295;44.484;11.240;2023-03-01T15:00:07;3.60;99.90
18339;DHT22;9295;44.484;11.240;2023-03-01T15:02:37;3.60;99.90
18339;DHT22;9295;44.484;11.240;2023-03-01T15:05:08;3.50;99.90
18339;DHT22;9295;44.484;11.240;2023-03-01T15:07:40;3.60;99.90
18339;DHT22;9295;44.484;11.240;2023-03-01T15:10:20;3.60;99.90
18339;DHT22;9295;44.484;11.240;2023-03-01T15:12:51;3.60;99.90
18339;DHT22;9295;44.484;11.240;2023-03-01T15:15:33;3.60;99.90
18339;DHT22;9295;44.484;11.240;2023-03-01T15:18:04;3.60;99.90
18339;DHT22;9295;44.484;11.240;2023-03-01T15:20:34;3.60;99.90
18339;DHT22;9295;44.484;11.240;2023-03-01T15:23:05;3.60;99.90
18339;DHT22;9295;44.484;11.240;2023-03-01T15:25:45;3.60;99.90
18339;DHT22;9295;44.484;11.240;2023-03-01T15:28:19;3.60;99.90
18339;DHT22;9295;44.484;11.240;2023-03-01T15:30:53;3.60;99.90
18339;DHT22;9295;44.484;11.240;2023-03-01T15:33:32;3.60;99.90
18339;DHT22;9295;44.484;11.240;2023-03-01T15:36:02;3.60;99.90
18339;DHT22;9295;44.484;11.240;2023-03-01T15:38:34;3.60;99.90
18339;DHT22;9295;44.484;11.240;2023-03-01T15:41:22;3.60;99.90
18339;DHT22;9295;44.484;11.240;2023-03-01T15:43:53;3.60;99.90
18339;DHT22;9295;44.484;11.240;2023-03-01T15:46:26;3.50;99.90
18339;DHT22;9295;44.484;11.240;2023-03-01T15:48:58;3.50;99.90
18339;DHT22;9295;44.484;11.240;2023-03-01T15:51:31;3.50;99.90
18339;DHT22;9295;44.484;11.240;2023-03-01T15:54:03;3.60;99.90
18339;DHT22;9295;44.484;11.240;2023-03-01T15:56:32;3.60;99.90
18339;DHT22;9295;44.484;11.240;2023-03-01T15:59:02;3.50;99.90
18339;DHT22;9295;44.484;11.240;2023-03-01T16:01:31;3.50;99.90
18339;DHT22;9295;44.484;11.240;2023-03-01T16:04:02;3.50;99.90
18339;DHT22;9295;44.484;11.240;2023-03-01T16:06:30;3.40;99.90
18339;DHT22;9295;44.484;11.240;2023-03-01T16:08:59;3.40;99.90
18339;DHT22;9295;44.484;11.240;2023-03-01T16:11:29;3.30;99.90
18339;DHT22;9295;44.484;11.240;2023-03-01T16:13:59;3.40;99.90
18339;DHT22;9295;44.484;11.240;2023-03-01T16:16:29;3.30;99.90
18339;DHT22;9295;44.484;11.240;2023-03-01T16:18:59;3.30;99.90
18339;DHT22;9295;44.484;11.240;2023-03-01T16:21:28;3.40;99.90
18339;DHT22;9295;44.484;11.240;2023-03-01T16:23:58;3.40;99.90
18339;DHT22;9295;44.484;11.240;2023-03-01T16:26:26;3.40;99.90
18339;DHT22;9295;44.484;11.240;2023-03-01T16:28:56;3.40;99.90
18339;DHT22;9295;44.484;11.240;2023-03-01T16:31:25;3.30;99.90
18339;DHT22;9295;44.484;11.240;2023-03-01T16:33:56;3.30;99.90